Time;durP1;ratioP1;P1;durP2;ratioP2;P2;SDS_P1;SDS_P2;PMS_P1;PMS_P2;Temp;Humidity;BMP_temperature;BMP_pressure;BME280_temperature;BME280_humidity;BME280_pressure;Samples;Min_cycle;Max_cycle;Signal;HPM_P1;HPM_P2
2021/05/08 00:04:28;;;;;;;15.15;10.85;;;;;;;2.57;100.00;101742.44;3615961;22;20069;-61
2021/05/08 00:06:55;;;;;;;17.65;11.07;;;;;;;2.48;100.00;101745.47;3580149;40;20068;-61
2021/05/08 00:09:21;;;;;;;15.85;11.65;;;;;;;2.43;100.00;101741.22;3579607;40;20154;-63
2021/05/08 00:11:48;;;;;;;21.05;12.18;;;;;;;2.36;100.00;101733.56;3579854;40;20052;-62
2021/05/08 00:14:14;;;;;;;16.77;11.23;;;;;;;2.35;100.00;101742.44;3579548;40;20055;-64
2021/05/08 00:16:40;;;;;;;14.88;10.23;;;;;;;2.29;100.00;101738.25;3581123;40;20065;-65
2021/05/08 00:19:06;;;;;;;15.48;11.00;;;;;;;2.20;100.00;101728.00;3579640;40;20100;-61
2021/05/08 00:21:32;;;;;;;17.02;11.32;;;;;;;2.24;100.00;101730.47;3580526;40;20046;-63
2021/05/08 00:23:58;;;;;;;17.85;11.13;;;;;;;2.22;100.00;101720.81;3579246;40;20324;-61
2021/05/08 00:26:24;;;;;;;18.42;10.73;;;;;;;2.20;100.00;101722.69;3579216;40;20382;-61
2021/05/08 00:28:52;;;;;;;13.73;9.98;;;;;;;2.19;100.00;101719.13;3577916;40;20316;-61
2021/05/08 00:31:18;;;;;;;16.55;10.95;;;;;;;2.23;100.00;101711.94;3578818;40;20154;-60
2021/05/08 00:33:44;;;;;;;14.52;9.50;;;;;;;2.15;100.00;101706.03;3579796;40;20057;-63
2021/05/08 00:36:10;;;;;;;15.95;10.73;;;;;;;2.09;100.00;101700.06;3580421;40;20391;-60
2021/05/08 00:38:36;;;;;;;16.35;11.25;;;;;;;2.04;100.00;101703.81;3580767;40;20329;-60
2021/05/08 00:41:02;;;;;;;18.40;10.82;;;;;;;2.02;100.00;101698.56;3579497;40;20051;-62
2021/05/08 00:43:28;;;;;;;16.33;10.90;;;;;;;2.07;100.00;101696.59;3579816;40;20052;-62
2021/05/08 00:45:55;;;;;;;19.00;10.77;;;;;;;2.05;100.00;101690.47;3580585;40;20056;-60
2021/05/08 00:48:21;;;;;;;16.15;10.68;;;;;;;2.00;100.00;101681.81;3579924;40;20424;-61
2021/05/08 00:50:49;;;;;;;21.08;11.02;;;;;;;1.93;100.00;101678.56;3579644;40;20049;-64
2021/05/08 00:53:15;;;;;;;15.30;9.82;;;;;;;1.91;100.00;101682.19;3578726;40;20142;-61
2021/05/08 00:55:41;;;;;;;17.63;10.80;;;;;;;1.98;100.00;101683.69;3580672;40;20117;-62
2021/05/08 00:58:08;;;;;;;16.15;11.15;;;;;;;2.00;100.00;101687.13;3579223;40;20032;-62
2021/05/08 01:00:35;;;;;;;17.50;11.98;;;;;;;2.01;100.00;101688.00;3578260;40;20064;-63
2021/05/08 01:05:42;;;;;;;15.02;11.45;;;;;;;2.10;100.00;101680.53;3603636;23;20045;-61
2021/05/08 01:08:08;;;;;;;16.85;10.73;;;;;;;2.09;100.00;101696.53;3572460;40;20037;-62
2021/05/08 01:10:34;;;;;;;17.55;12.00;;;;;;;1.93;100.00;101685.66;3569379;40;20059;-61
2021/05/08 01:13:02;;;;;;;18.17;11.63;;;;;;;1.85;100.00;101685.94;3571203;40;20059;-64
2021/05/08 01:15:28;;;;;;;18.25;10.68;;;;;;;1.92;100.00;101682.13;3570640;40;20057;-61
2021/05/08 01:17:55;;;;;;;17.45;11.52;;;;;;;1.82;100.00;101685.22;3571191;40;20413;-61
2021/05/08 01:20:22;;;;;;;17.13;11.27;;;;;;;1.83;100.00;101679.00;3569439;40;21284;-61
2021/05/08 01:22:50;;;;;;;20.15;12.82;;;;;;;1.69;100.00;101680.38;3571232;40;20072;-62
2021/05/08 01:25:18;;;;;;;18.23;11.90;;;;;;;1.64;100.00;101674.38;3571956;40;20049;-63
2021/05/08 01:27:46;;;;;;;20.55;12.75;;;;;;;1.59;100.00;101676.34;3571873;40;20327;-61
2021/05/08 01:30:13;;;;;;;18.20;12.85;;;;;;;1.55;100.00;101677.38;3572113;40;20041;-61
2021/05/08 01:32:39;;;;;;;19.92;11.88;;;;;;;1.54;100.00;101665.03;3572796;40;20172;-62
2021/05/08 01:35:06;;;;;;;18.48;13.13;;;;;;;1.54;100.00;101670.34;3571568;40;20399;-61
2021/05/08 01:37:32;;;;;;;18.08;12.45;;;;;;;1.65;100.00;101657.53;3570283;40;20057;-61
2021/05/08 01:40:03;;;;;;;18.85;12.02;;;;;;;1.77;100.00;101666.81;3571569;40;20494;-61
2021/05/08 01:42:29;;;;;;;18.52;11.43;;;;;;;1.73;100.00;101655.44;3571356;40;20508;-61
2021/05/08 01:44:56;;;;;;;17.05;11.80;;;;;;;1.71;100.00;101667.06;3572565;40;20333;-60
2021/05/08 01:47:22;;;;;;;20.98;12.63;;;;;;;1.65;100.00;101654.00;3572026;40;20047;-60
2021/05/08 01:49:48;;;;;;;18.15;11.80;;;;;;;1.64;100.00;101652.28;3572729;40;20061;-62
2021/05/08 01:52:14;;;;;;;18.38;12.65;;;;;;;1.58;100.00;101656.03;3572221;40;20126;-60
2021/05/08 01:54:40;;;;;;;20.05;11.43;;;;;;;1.57;100.00;101656.94;3571152;40;20089;-64
2021/05/08 01:57:06;;;;;;;16.15;12.13;;;;;;;1.56;100.00;101657.88;3571403;40;20042;-61
2021/05/08 01:59:32;;;;;;;19.23;11.95;;;;;;;1.39;100.00;101658.53;3572269;40;20041;-61
2021/05/08 02:01:58;;;;;;;19.13;12.68;;;;;;;1.32;100.00;101654.38;3571032;40;20296;-62
2021/05/08 02:04:24;;;;;;;17.88;12.02;;;;;;;1.26;100.00;101647.50;3570270;40;20947;-61
2021/05/08 02:06:53;;;;;;;19.85;12.70;;;;;;;1.28;100.00;101648.31;3571423;40;20100;-61
2021/05/08 02:09:19;;;;;;;18.85;11.60;;;;;;;1.32;100.00;101639.31;3571356;40;20049;-63
2021/05/08 02:11:45;;;;;;;18.55;11.52;;;;;;;1.28;100.00;101642.13;3571196;40;20087;-60
2021/05/08 02:14:11;;;;;;;18.80;11.85;;;;;;;1.35;100.00;101633.88;3571397;40;20054;-60
2021/05/08 02:16:37;;;;;;;19.10;11.70;;;;;;;1.28;100.00;101642.13;3571942;40;20037;-62
2021/05/08 02:19:04;;;;;;;19.40;13.00;;;;;;;1.26;100.00;101647.50;3571565;40;20069;-62
2021/05/08 02:21:30;;;;;;;20.08;12.48;;;;;;;1.25;100.00;101640.44;3572097;40;20053;-61
2021/05/08 02:23:56;;;;;;;17.10;12.07;;;;;;;1.19;100.00;101638.03;3571405;40;20057;-61
2021/05/08 02:26:22;;;;;;;22.23;13.18;;;;;;;1.18;100.00;101642.47;3570767;40;20065;-63
2021/05/08 02:28:48;;;;;;;18.85;12.27;;;;;;;1.20;100.00;101637.13;3571805;40;20049;-60
2021/05/08 02:31:15;;;;;;;20.58;12.88;;;;;;;1.22;100.00;101629.97;3570798;40;20049;-61
2021/05/08 02:33:40;;;;;;;20.42;13.32;;;;;;;1.20;100.00;101629.16;3571446;40;20307;-61
2021/05/08 02:36:07;;;;;;;23.67;14.00;;;;;;;1.18;100.00;101629.22;3571475;40;20052;-62
2021/05/08 02:38:33;;;;;;;20.55;13.55;;;;;;;1.21;100.00;101628.25;3570856;40;20452;-60
2021/05/08 02:40:59;;;;;;;23.42;12.35;;;;;;;1.14;100.00;101624.94;3570522;40;20061;-61
2021/05/08 02:43:25;;;;;;;21.27;13.63;;;;;;;1.10;100.00;101627.78;3570140;40;22281;-60
2021/05/08 02:45:50;;;;;;;18.77;12.15;;;;;;;1.13;100.00;101622.34;3572344;40;20043;-63
2021/05/08 02:48:17;;;;;;;25.80;12.60;;;;;;;1.12;100.00;101625.91;3571961;40;20037;-60
2021/05/08 02:50:43;;;;;;;21.75;13.10;;;;;;;1.12;100.00;101612.66;3572349;40;20037;-61
2021/05/08 02:53:09;;;;;;;22.42;13.80;;;;;;;1.09;100.00;101620.72;3571417;40;20135;-61
2021/05/08 02:55:35;;;;;;;18.88;12.98;;;;;;;1.15;100.00;101615.19;3572502;40;20057;-60
2021/05/08 02:58:02;;;;;;;25.25;14.60;;;;;;;1.05;100.00;101610.25;3571240;40;20057;-59
2021/05/08 03:00:28;;;;;;;21.23;14.07;;;;;;;1.05;100.00;101612.03;3571977;40;20054;-60
2021/05/08 03:02:54;;;;;;;18.30;13.15;;;;;;;1.08;100.00;101609.28;3571641;40;20048;-61
2021/05/08 03:05:21;;;;;;;25.10;14.60;;;;;;;1.10;100.00;101601.25;3570509;40;20025;-62
2021/05/08 03:07:47;;;;;;;23.67;13.70;;;;;;;1.07;100.00;101596.06;3571594;40;20149;-60
2021/05/08 03:10:13;;;;;;;19.20;13.68;;;;;;;1.10;100.00;101593.31;3571241;40;20051;-60
2021/05/08 03:12:39;;;;;;;19.13;12.65;;;;;;;1.11;100.00;101598.56;3571933;40;20045;-63
2021/05/08 03:15:07;;;;;;;20.48;13.63;;;;;;;1.15;100.00;101597.53;3570698;40;20033;-61
2021/05/08 03:17:33;;;;;;;20.40;13.35;;;;;;;1.16;100.00;101591.31;3573046;40;20065;-63
2021/05/08 03:19:59;;;;;;;23.17;14.80;;;;;;;1.14;100.00;101590.47;3571929;40;20057;-63
2021/05/08 03:22:26;;;;;;;21.10;13.88;;;;;;;1.13;100.00;101586.09;3572473;40;20372;-61
2021/05/08 03:24:52;;;;;;;19.63;14.15;;;;;;;1.10;100.00;101591.50;3571596;40;20061;-61
2021/05/08 03:27:18;;;;;;;21.40;14.15;;;;;;;1.10;100.00;101580.91;3571937;40;20084;-61
2021/05/08 03:29:44;;;;;;;27.05;14.43;;;;;;;1.09;100.00;101589.81;3571827;40;20048;-60
2021/05/08 03:32:10;;;;;;;22.52;14.23;;;;;;;1.09;100.00;101588.91;3572480;40;20100;-61
2021/05/08 03:34:36;;;;;;;20.20;13.20;;;;;;;1.08;100.00;101588.06;3572492;40;20063;-62
2021/05/08 03:37:02;;;;;;;24.58;14.45;;;;;;;1.11;100.00;101573.84;3569423;40;20080;-61
2021/05/08 03:39:28;;;;;;;24.45;14.88;;;;;;;1.18;100.00;101572.69;3569320;40;20044;-61
2021/05/08 03:41:54;;;;;;;23.48;14.80;;;;;;;1.29;100.00;101574.91;3571749;40;20042;-62
2021/05/08 03:44:20;;;;;;;24.90;15.10;;;;;;;1.34;100.00;101576.47;3571632;40;20056;-62
2021/05/08 03:46:46;;;;;;;28.30;14.55;;;;;;;1.32;100.00;101580.94;3572361;40;20041;-61
2021/05/08 03:49:12;;;;;;;23.90;14.82;;;;;;;1.29;100.00;101575.78;3571107;40;20045;-61
2021/05/08 03:51:38;;;;;;;23.02;14.68;;;;;;;1.36;100.00;101571.97;3571843;40;20041;-61
2021/05/08 03:54:37;;;;;;;21.77;14.50;;;;;;;1.51;100.00;101573.16;3600246;22;20286;-63
2021/05/08 03:57:05;;;;;;;25.52;15.30;;;;;;;1.51;100.00;101569.66;3557666;40;20045;-60
2021/05/08 03:59:31;;;;;;;21.55;14.18;;;;;;;1.49;100.00;101568.84;3565602;40;20057;-59
2021/05/08 04:01:57;;;;;;;25.85;15.60;;;;;;;1.61;100.00;101571.00;3565058;40;20049;-63
2021/05/08 04:04:23;;;;;;;22.77;15.57;;;;;;;1.73;100.00;101570.50;3565184;40;20045;-60
2021/05/08 04:06:49;;;;;;;26.50;15.43;;;;;;;1.77;100.00;101565.06;3565773;40;20367;-60
2021/05/08 04:09:15;;;;;;;27.23;16.40;;;;;;;1.84;100.00;101564.78;3565969;40;20037;-60
2021/05/08 04:11:41;;;;;;;26.50;16.15;;;;;;;1.91;100.00;101570.69;3566372;40;20072;-61
2021/05/08 04:14:08;;;;;;;24.73;15.60;;;;;;;2.00;100.00;101570.31;3563586;40;20132;-64
2021/05/08 04:16:34;;;;;;;26.83;16.77;;;;;;;2.09;100.00;101561.97;3565988;40;20252;-60
2021/05/08 04:19:01;;;;;;;24.48;15.25;;;;;;;2.14;100.00;101560.94;3565690;40;20060;-61
2021/05/08 04:21:28;;;;;;;26.45;16.40;;;;;;;2.21;100.00;101560.59;3565899;40;20127;-61
2021/05/08 04:23:54;;;;;;;27.23;16.77;;;;;;;2.28;100.00;101555.88;3643511;23;20075;-61
2021/05/08 04:26:20;;;;;;;27.88;15.90;;;;;;;2.44;100.00;101550.75;3580319;40;20064;-62
2021/05/08 04:28:46;;;;;;;28.08;16.75;;;;;;;2.68;100.00;101543.53;3581166;40;20302;-60
2021/05/08 04:31:13;;;;;;;22.98;15.25;;;;;;;2.81;100.00;101554.44;3581504;40;20061;-60
2021/05/08 04:33:39;;;;;;;27.83;16.15;;;;;;;2.94;100.00;101560.09;3580537;40;20523;-61
2021/05/08 04:36:05;;;;;;;25.40;15.00;;;;;;;3.02;100.00;101557.06;3581198;40;20040;-60
2021/05/08 04:38:31;;;;;;;24.45;15.10;;;;;;;3.01;100.00;101545.56;3581974;40;20159;-60
2021/05/08 04:40:57;;;;;;;20.65;13.32;;;;;;;3.10;100.00;101538.97;3581463;40;20613;-62
2021/05/08 04:43:23;;;;;;;23.25;15.45;;;;;;;3.31;100.00;101535.31;3580463;40;20060;-62
2021/05/08 04:45:49;;;;;;;20.90;14.15;;;;;;;3.61;100.00;101541.91;3581939;40;20052;-60
2021/05/08 04:48:22;;;;;;;20.67;14.30;;;;;;;3.82;100.00;101546.16;3581752;40;20285;-61
2021/05/08 04:50:48;;;;;;;20.10;14.45;;;;;;;3.97;100.00;101547.19;3581417;40;20073;-60
2021/05/08 04:53:14;;;;;;;20.15;14.00;;;;;;;4.01;100.00;101531.94;3580605;40;20328;-62
2021/05/08 04:55:40;;;;;;;20.30;12.88;;;;;;;4.03;100.00;101533.59;3581748;40;20044;-62
2021/05/08 04:58:06;;;;;;;20.52;13.32;;;;;;;4.06;100.00;101537.03;3583036;40;20106;-61
2021/05/08 05:00:32;;;;;;;18.60;12.77;;;;;;;4.17;100.00;101532.88;3582485;40;20049;-60
2021/05/08 05:02:58;;;;;;;20.13;12.73;;;;;;;4.29;100.00;101530.53;3583079;40;20040;-60
2021/05/08 05:05:25;;;;;;;17.17;12.75;;;;;;;4.47;100.00;101539.38;3582249;40;20049;-60
2021/05/08 05:07:51;;;;;;;19.90;12.30;;;;;;;4.65;100.00;101532.22;3583241;40;20306;-60
2021/05/08 05:10:17;;;;;;;18.15;11.77;;;;;;;4.70;100.00;101532.84;3582886;40;20098;-60
2021/05/08 05:12:44;;;;;;;14.60;10.45;;;;;;;4.88;100.00;101537.19;3582530;40;20101;-60
2021/05/08 05:15:11;;;;;;;16.23;10.48;;;;;;;5.08;100.00;101530.78;3582950;40;20509;-62
2021/05/08 05:17:37;;;;;;;17.80;11.80;;;;;;;5.15;100.00;101536.63;3583481;40;20053;-60
2021/05/08 05:20:04;;;;;;;18.20;10.00;;;;;;;5.18;100.00;101544.47;3582471;40;20072;-63
2021/05/08 05:22:31;;;;;;;14.90;10.23;;;;;;;5.28;100.00;101544.81;3582535;40;20075;-60
2021/05/08 05:24:57;;;;;;;12.77;9.32;;;;;;;5.22;100.00;101535.34;3582672;40;20047;-61
2021/05/08 05:27:23;;;;;;;16.20;10.80;;;;;;;5.28;100.00;101541.28;3583100;40;20079;-63
2021/05/08 05:29:49;;;;;;;15.32;10.02;;;;;;;5.31;100.00;101541.13;3582922;40;20107;-60
2021/05/08 05:32:15;;;;;;;13.25;9.10;;;;;;;5.57;100.00;101540.50;3582650;40;20072;-60
2021/05/08 05:34:40;;;;;;;13.80;9.43;;;;;;;5.72;100.00;101535.25;3582626;40;20040;-61
2021/05/08 05:37:06;;;;;;;13.55;9.07;;;;;;;5.78;100.00;101535.75;3583498;40;20055;-63
2021/05/08 05:39:34;;;;;;;14.77;8.52;;;;;;;5.86;100.00;101532.66;3582974;40;20085;-60
2021/05/08 05:42:00;;;;;;;11.70;8.73;;;;;;;5.99;100.00;101530.13;3582436;40;20068;-62
2021/05/08 05:44:26;;;;;;;11.95;8.45;;;;;;;6.17;100.00;101530.00;3582437;40;20321;-64
2021/05/08 05:46:52;;;;;;;11.40;7.80;;;;;;;6.32;100.00;101535.31;3582114;40;20032;-61
2021/05/08 05:49:18;;;;;;;11.23;7.03;;;;;;;6.53;100.00;101534.97;3581757;40;20418;-65
2021/05/08 05:51:44;;;;;;;13.15;7.55;;;;;;;6.76;100.00;101538.91;3582762;40;20060;-60
2021/05/08 05:54:10;;;;;;;9.30;6.63;;;;;;;6.88;100.00;101525.75;3582625;40;20041;-61
2021/05/08 05:56:37;;;;;;;9.38;7.30;;;;;;;6.97;100.00;101533.19;3582992;40;20052;-62
2021/05/08 05:59:03;;;;;;;10.48;7.82;;;;;;;7.02;100.00;101533.75;3582734;40;20166;-63
2021/05/08 06:01:30;;;;;;;10.35;7.50;;;;;;;7.10;100.00;101525.25;3581906;40;20045;-60
2021/05/08 06:03:56;;;;;;;9.82;6.78;;;;;;;7.17;100.00;101506.00;3582116;40;20040;-63
2021/05/08 06:06:21;;;;;;;10.98;7.18;;;;;;;7.35;100.00;101503.97;3582719;40;20073;-61
2021/05/08 06:08:47;;;;;;;9.07;6.05;;;;;;;7.53;100.00;101496.53;3581875;40;20056;-64
2021/05/08 06:11:14;;;;;;;10.55;6.43;;;;;;;7.69;100.00;101501.75;3582390;40;20048;-59
2021/05/08 06:13:41;;;;;;;8.00;6.18;;;;;;;7.81;100.00;101493.88;3581817;40;20059;-60
2021/05/08 06:16:07;;;;;;;11.02;6.88;;;;;;;7.78;100.00;101491.38;3581642;40;20393;-60
2021/05/08 06:18:33;;;;;;;6.75;5.55;;;;;;;7.92;100.00;101496.69;3581521;40;20044;-63
2021/05/08 06:20:59;;;;;;;13.13;6.43;;;;;;;7.97;100.00;101489.19;3582186;40;20040;-61
2021/05/08 06:23:25;;;;;;;8.57;6.30;;;;;;;8.04;100.00;101485.13;3581499;40;20092;-62
2021/05/08 06:25:51;;;;;;;12.88;5.78;;;;;;;8.17;100.00;101492.31;3582426;40;20033;-61
2021/05/08 06:28:17;;;;;;;11.25;7.00;;;;;;;8.19;100.00;101493.09;3582496;40;20141;-60
2021/05/08 06:30:44;;;;;;;10.77;6.70;;;;;;;8.23;100.00;101481.19;3582573;40;20060;-64
2021/05/08 06:35:40;;;;;;;11.25;7.38;;;;;;;8.35;100.00;101483.03;3638323;22;20135;-60
2021/05/08 06:38:06;;;;;;;11.25;7.43;;;;;;;8.49;100.00;101478.56;3579117;40;20398;-61
2021/05/08 06:40:33;;;;;;;11.80;6.82;;;;;;;8.67;100.00;101468.34;3580992;40;20053;-61
2021/05/08 06:42:59;;;;;;;11.68;7.70;;;;;;;8.62;100.00;101460.63;3581779;40;20141;-60
2021/05/08 06:45:25;;;;;;;10.32;7.68;;;;;;;8.75;100.00;101452.56;3581698;40;20438;-61
2021/05/08 06:47:58;;;;;;;11.15;7.70;;;;;;;8.90;100.00;101450.59;3582080;40;20035;-62
2021/05/08 06:50:24;;;;;;;11.15;7.30;;;;;;;8.93;100.00;101450.38;3581414;40;20327;-62
2021/05/08 06:52:50;;;;;;;10.98;7.35;;;;;;;9.08;100.00;101451.97;3580750;40;20131;-61
2021/05/08 06:55:16;;;;;;;12.38;8.05;;;;;;;9.13;100.00;101448.94;3581393;40;20076;-61
2021/05/08 06:57:42;;;;;;;12.85;7.72;;;;;;;9.05;100.00;101451.31;3580898;40;20048;-61
2021/05/08 07:00:09;;;;;;;10.07;6.97;;;;;;;9.02;100.00;101443.47;3580632;40;20081;-59
2021/05/08 07:02:35;;;;;;;11.57;7.68;;;;;;;8.94;100.00;101436.84;3580898;40;20076;-59
2021/05/08 07:05:02;;;;;;;10.25;7.05;;;;;;;8.92;100.00;101424.50;3581323;40;20285;-59
2021/05/08 07:07:27;;;;;;;10.73;6.40;;;;;;;9.06;100.00;101427.03;3580939;40;20057;-59
2021/05/08 07:09:53;;;;;;;10.35;6.63;;;;;;;9.16;100.00;101429.91;3580727;40;20056;-60
2021/05/08 07:12:19;;;;;;;13.43;7.05;;;;;;;9.21;100.00;101426.88;3580956;40;20400;-60
2021/05/08 07:14:45;;;;;;;9.32;6.90;;;;;;;9.23;100.00;101430.28;3580926;40;20060;-59
2021/05/08 07:17:11;;;;;;;9.65;6.53;;;;;;;9.37;100.00;101426.59;3579405;40;20048;-59
2021/05/08 07:19:37;;;;;;;8.30;6.35;;;;;;;9.46;100.00;101429.44;3581300;40;20052;-59
2021/05/08 07:22:04;;;;;;;10.27;6.38;;;;;;;9.60;100.00;101430.25;3580538;40;20052;-60
2021/05/08 07:24:30;;;;;;;10.32;6.20;;;;;;;9.71;100.00;101424.91;3581078;40;20041;-61
2021/05/08 07:26:57;;;;;;;8.40;6.53;;;;;;;10.06;100.00;101421.34;3581298;40;20039;-60
2021/05/08 07:29:24;;;;;;;10.60;6.00;;;;;;;10.28;100.00;101422.38;3579471;40;20141;-60
2021/05/08 07:31:50;;;;;;;8.52;6.00;;;;;;;10.24;100.00;101420.91;3582142;40;20048;-59
2021/05/08 07:34:16;;;;;;;8.45;5.95;;;;;;;10.17;96.88;101413.31;3579636;40;20047;-59
2021/05/08 07:36:42;;;;;;;9.93;5.30;;;;;;;10.18;97.29;101412.31;3580096;40;20435;-64
2021/05/08 07:39:08;;;;;;;9.95;5.28;;;;;;;10.38;94.13;101401.88;3580810;40;20055;-59
2021/05/08 07:41:35;;;;;;;10.73;6.22;;;;;;;10.44;91.69;101411.28;3579961;40;20049;-61
2021/05/08 07:44:01;;;;;;;9.57;5.53;;;;;;;10.47;90.93;101411.91;3580498;40;20129;-61
2021/05/08 07:46:29;;;;;;;8.68;5.30;;;;;;;10.64;89.58;101405.16;3580297;40;20435;-62
2021/05/08 07:48:55;;;;;;;8.88;5.43;;;;;;;10.68;86.72;101397.69;3582087;40;20048;-61
2021/05/08 07:51:21;;;;;;;8.52;4.75;;;;;;;10.83;90.19;101385.66;3580371;40;20072;-59
2021/05/08 07:53:47;;;;;;;7.75;5.28;;;;;;;10.86;87.65;101389.97;3578868;40;20051;-62
2021/05/08 07:56:14;;;;;;;7.22;4.78;;;;;;;10.81;87.23;101376.88;3580360;40;20287;-60
2021/05/08 07:58:40;;;;;;;10.40;5.32;;;;;;;10.66;84.06;101378.97;3581331;40;20366;-59
2021/05/08 08:01:07;;;;;;;8.50;5.78;;;;;;;10.68;88.58;101378.84;3580501;40;20065;-60
2021/05/08 08:03:33;;;;;;;11.32;6.00;;;;;;;10.57;86.43;101378.84;3580676;40;20057;-60
2021/05/08 08:05:59;;;;;;;8.75;5.72;;;;;;;10.62;88.00;101371.28;3580700;40;20060;-60
2021/05/08 08:08:25;;;;;;;9.27;5.72;;;;;;;10.63;87.60;101379.22;3580810;40;20133;-62
2021/05/08 08:10:51;;;;;;;8.52;5.55;;;;;;;10.49;85.31;101377.63;3581494;40;20043;-61
2021/05/08 08:13:18;;;;;;;8.50;5.63;;;;;;;10.64;90.13;101366.63;3581288;40;20049;-61
2021/05/08 08:15:44;;;;;;;8.73;6.00;;;;;;;10.77;85.60;101364.63;3581795;40;20061;-61
2021/05/08 08:18:10;;;;;;;9.48;6.05;;;;;;;10.84;87.97;101371.22;3581664;40;20438;-62
2021/05/08 08:20:39;;;;;;;10.52;6.15;;;;;;;10.91;86.69;101376.13;3581858;40;20296;-61
2021/05/08 08:23:05;;;;;;;11.10;6.18;;;;;;;10.78;86.97;101369.06;3580989;40;20328;-61
2021/05/08 08:25:31;;;;;;;8.55;5.80;;;;;;;11.03;86.70;101358.97;3581565;40;20041;-60
2021/05/08 08:27:57;;;;;;;10.15;6.05;;;;;;;10.77;87.11;101359.25;3581965;40;20501;-59
2021/05/08 08:30:24;;;;;;;10.52;6.35;;;;;;;10.66;87.24;101351.22;3580986;40;20076;-60
2021/05/08 08:32:50;;;;;;;9.50;6.18;;;;;;;10.75;87.51;101350.47;3582793;40;20491;-61
2021/05/08 08:35:16;;;;;;;11.57;6.82;;;;;;;10.81;88.81;101344.56;3582456;40;20056;-60
2021/05/08 08:37:42;;;;;;;12.73;5.78;;;;;;;10.84;87.78;101349.69;3583000;40;20314;-63
2021/05/08 08:40:09;;;;;;;10.35;6.28;;;;;;;10.97;87.13;101354.09;3581831;40;20033;-61
2021/05/08 08:42:37;;;;;;;11.18;6.15;;;;;;;10.92;87.42;101353.59;3582579;40;20385;-63
2021/05/08 08:45:04;;;;;;;8.85;5.70;;;;;;;10.87;87.22;101353.97;3582732;40;20125;-60
2021/05/08 08:47:31;;;;;;;11.65;6.18;;;;;;;11.06;86.02;101350.63;3583090;40;20056;-60
2021/05/08 08:50:00;;;;;;;8.65;5.53;;;;;;;11.18;84.51;101335.28;3583071;40;20423;-61
2021/05/08 08:52:26;;;;;;;10.68;6.50;;;;;;;11.29;83.44;101339.75;3582572;40;20048;-61
2021/05/08 08:54:54;;;;;;;8.07;5.57;;;;;;;11.58;84.71;101332.75;3583113;40;20045;-62
2021/05/08 08:57:25;;;;;;;9.48;5.90;;;;;;;11.73;83.85;101337.81;3585366;40;20383;-60
2021/05/08 09:02:16;;;;;;;10.05;5.85;;;;;;;11.70;82.61;101335.38;3582585;22;20045;-59
2021/05/08 09:04:43;;;;;;;10.40;5.68;;;;;;;11.61;82.47;101325.41;3572278;40;20131;-59
2021/05/08 09:07:10;;;;;;;11.80;6.00;;;;;;;11.72;79.56;101333.44;3572061;40;20292;-61
2021/05/08 09:09:37;;;;;;;6.47;5.30;;;;;;;11.71;80.11;101327.16;3573055;40;20111;-59
2021/05/08 09:12:03;;;;;;;9.02;6.32;;;;;;;11.57;80.05;101331.06;3572284;40;20049;-61
2021/05/08 09:14:32;;;;;;;9.55;5.07;;;;;;;11.67;78.40;101319.47;3573088;40;20057;-63
2021/05/08 09:17:07;;;;;;;10.15;5.68;;;;;;;11.98;82.97;101328.47;3572779;40;20404;-62
2021/05/08 09:19:35;;;;;;;10.57;5.75;;;;;;;11.97;78.68;101315.13;3572673;40;20045;-60
2021/05/08 09:22:27;;;;;;;7.63;5.60;;;;;;;11.75;79.42;101317.81;3571688;40;20049;-62
2021/05/08 09:24:55;;;;;;;11.05;5.72;;;;;;;11.87;77.21;101315.91;3572994;40;20073;-62
2021/05/08 09:27:43;;;;;;;10.38;5.72;;;;;;;12.32;78.86;101324.66;3572578;40;20158;-60
2021/05/08 09:30:13;;;;;;;7.78;5.80;;;;;;;12.30;77.82;101321.25;3571131;40;20049;-60
2021/05/08 09:32:40;;;;;;;9.00;5.85;;;;;;;11.91;77.54;101320.06;3572846;40;20444;-60
2021/05/08 09:35:09;;;;;;;11.57;6.18;;;;;;;11.85;81.06;101314.31;3572494;40;20071;-63
2021/05/08 09:37:37;;;;;;;10.05;6.28;;;;;;;11.85;80.18;101312.50;3572661;40;20452;-60
2021/05/08 09:40:14;;;;;;;9.85;6.10;;;;;;;11.78;81.17;101305.94;3572293;40;20049;-61
2021/05/08 09:42:44;;;;;;;13.32;6.10;;;;;;;12.03;80.11;101298.44;3571114;40;20063;-61
2021/05/08 09:45:11;;;;;;;10.43;6.03;;;;;;;12.32;82.56;101289.56;3572853;40;20061;-63
2021/05/08 09:47:37;;;;;;;9.48;6.00;;;;;;;12.43;76.71;101300.28;3572412;40;20115;-61
2021/05/08 09:50:04;;;;;;;7.82;5.78;;;;;;;12.44;78.77;101280.41;3571653;40;20134;-60
2021/05/08 09:52:43;;;;;;;9.15;5.88;;;;;;;12.24;79.18;101291.09;3570760;40;20052;-59
2021/05/08 09:55:10;;;;;;;9.55;6.82;;;;;;;12.11;80.31;101290.50;3572571;40;20051;-62
2021/05/08 09:57:36;;;;;;;13.43;6.47;;;;;;;12.05;81.77;101286.47;3572437;40;20319;-59
2021/05/08 10:00:04;;;;;;;8.70;6.10;;;;;;;12.03;81.31;101285.78;3572894;40;20337;-61
2021/05/08 10:02:32;;;;;;;8.20;5.43;;;;;;;12.03;81.99;101282.25;3572249;40;20054;-60
2021/05/08 10:04:59;;;;;;;8.70;6.10;;;;;;;12.06;81.47;101268.47;3572770;40;20406;-59
2021/05/08 10:07:28;;;;;;;8.45;5.80;;;;;;;12.13;82.23;101272.34;3572143;40;20061;-63
2021/05/08 10:09:57;;;;;;;;;;;;;;;12.20;81.95;101259.97;3572757;40;20050;-63
2021/05/08 10:12:24;;;;;;;8.10;5.43;;;;;;;12.29;81.85;101252.06;3572253;40;19933;-59
2021/05/08 10:14:51;;;;;;;10.77;5.82;;;;;;;12.57;83.03;101245.88;3572265;40;20295;-60
2021/05/08 10:17:19;;;;;;;7.68;5.68;;;;;;;12.67;78.61;101247.75;3571937;40;20080;-59
2021/05/08 10:19:46;;;;;;;7.85;5.18;;;;;;;12.66;79.74;101236.09;3572582;40;20045;-62
2021/05/08 10:22:14;;;;;;;7.05;4.80;;;;;;;12.74;76.07;101243.50;3572189;40;20105;-60
2021/05/08 10:24:42;;;;;;;7.90;5.63;;;;;;;12.79;77.78;101235.81;3572368;40;20053;-60
2021/05/08 10:27:09;;;;;;;10.82;5.28;;;;;;;12.87;74.88;101233.25;3572205;40;20064;-60
2021/05/08 10:29:38;;;;;;;6.82;5.25;;;;;;;12.84;79.74;101244.34;3572638;40;20079;-61
2021/05/08 10:32:06;;;;;;;8.02;5.43;;;;;;;12.80;80.15;101243.75;3571411;40;20083;-59
2021/05/08 10:34:32;;;;;;;6.93;5.20;;;;;;;12.79;81.83;101243.91;3571058;40;20077;-61
2021/05/08 10:37:06;;;;;;;7.95;5.18;;;;;;;12.70;82.52;101242.06;3571975;40;20151;-64
2021/05/08 10:39:47;;;;;;;9.50;5.47;;;;;;;12.55;86.03;101233.50;3571781;40;20292;-66
2021/05/08 10:42:29;;;;;;;7.22;5.38;;;;;;;12.31;85.61;101225.78;3571398;40;20049;-61
2021/05/08 10:44:55;;;;;;;6.97;5.32;;;;;;;12.46;93.12;101224.41;3571751;40;20073;-61
2021/05/08 10:47:21;;;;;;;9.20;5.00;;;;;;;12.73;92.10;101239.06;3571888;40;20066;-62
2021/05/08 10:50:20;;;;;;;6.57;5.22;;;;;;;12.70;93.11;101220.44;3571676;40;20052;-60
2021/05/08 10:53:03;;;;;;;8.50;4.97;;;;;;;12.91;90.20;101210.38;3571776;40;20053;-61
2021/05/08 10:55:30;;;;;;;7.40;4.60;;;;;;;12.91;92.62;101213.06;3571326;40;20052;-60
2021/05/08 10:58:26;;;;;;;6.28;4.35;;;;;;;12.50;90.67;101204.25;3571371;40;20111;-60
2021/05/08 11:00:55;;;;;;;6.43;4.20;;;;;;;12.70;92.99;101196.16;3571555;40;20037;-62
2021/05/08 11:03:22;;;;;;;5.30;4.30;;;;;;;12.61;97.29;101189.75;3571738;40;20261;-60
2021/05/08 11:05:53;;;;;;;7.00;3.90;;;;;;;12.31;91.83;101190.69;3571918;40;20296;-60
2021/05/08 11:08:56;;;;;;;7.18;3.97;;;;;;;12.34;97.16;101187.75;3571146;40;20045;-62
2021/05/08 11:11:25;;;;;;;5.28;3.70;;;;;;;12.15;99.98;101170.50;3569867;40;20428;-61
2021/05/08 11:14:00;;;;;;;7.35;4.55;;;;;;;12.15;96.73;101173.22;3571663;40;20431;-62
2021/05/08 11:16:28;;;;;;;6.75;3.80;;;;;;;12.23;97.44;101177.91;3572089;40;20043;-61
2021/05/08 11:18:55;;;;;;;5.78;4.00;;;;;;;12.03;99.76;101168.94;3571417;40;20607;-61
2021/05/08 11:21:41;;;;;;;5.72;4.07;;;;;;;12.03;100.00;101171.63;3571250;40;21293;-65
2021/05/08 11:24:10;;;;;;;6.32;4.35;;;;;;;11.87;100.00;101174.81;3571060;40;20063;-61
2021/05/08 11:26:38;;;;;;;7.38;4.78;;;;;;;11.79;100.00;101161.13;3570025;40;20493;-63
2021/05/08 11:29:07;;;;;;;9.52;4.95;;;;;;;11.62;100.00;101162.66;3570989;40;20053;-64